Terminal Aerodrome Forecast
Issued by NWS

Home | Current Version | Previous Version | Text Only | Print | Product List | Glossary On
Versions: 1 2 3 4 5 6 7 8 9 10 11 12 13
000
FTUS46 KPDT 051140
TAFPSC
TAF
KPSC 051140Z 0512/0612 22010KT P6SM -RA SCT050 OVC060
     FM051700 22015G22KT P6SM VCSH FEW050 BKN090
     FM052100 22014G21KT P6SM FEW100
     FM060300 23010KT P6SM SCT200=

USA.gov is the U.S. government's official web portal to all federal, state and local government web resources and services.